Kingsley, Iowa
Current Conditions -  °F | °C
As of 12:35 PM on Thursday 30 Oct 2014 (Local Time) from KLRJ Reporting Station
Clear Clear  
Wind Chill: 59°   Ceiling: Unl
Heat Index: 59°   Visibility: 10mi
Dew Point: 37°   Wind: 15mph
Humidity: 45%   Direction: 330°NNW
Pressure: 30.09"   Gusts: 21mph
Location:  42.59°N, 95.97°W
Report Text: KLRJ 301735Z AUTO 33013G18KT 10SM CLR 15/03 A3009 RMK AO2
Loading
Personal Weather Stations






























Interactive Weather Map
Tropical Storm Tracking
New forecast layout! Learn more

10-Day Weather Forecast

Advertisements
Track Severe Weather on mobile